Terminal Aerodrome Forecast
Issued by NWS Charleston, SC

Current Version | Previous Version | Text Only | Print | Product List | Glossary On
Versions: 1 2 3 4 5 6 7 8 9 10 11 12 13 14 15 16 17
427
FTUS42 KCHS 261131
TAFSAV
TAF
KSAV 261131Z 2612/2712 05007KT P6SM FEW015 SCT025
     FM261500 10011KT P6SM VCSH BKN035
     FM270000 05004KT P6SM SCT030 BKN150
     FM270800 35003KT 6SM BR SCT005=

USA.gov is the U.S. government's official web portal to all federal, state and local government web resources and services.